Airport View

Enter AWOS ICAO identifier for current METAR.

ex. KFNL

KUOX 300335Z AUTO 34008G13KT 9SM OVC013 07/06 A3010 RMK AO2 PWINO

30 Oct 2020 03:44

Frequency: 132.725

Phone: 662-234-9751

Other Area AWOS: KPMU - KOLV - KTUP - KUTA

TAF KTUP 292341Z 3000/3024 30015G25KT P6SM OVC020 FM300300 34011KT P6SM OVC020 FM300600 01008KT P6SM SCT020 BKN250 FM301500 03010G15KT P6SM SCT020